Time;durP1;ratioP1;P1;durP2;ratioP2;P2;SDS_P1;SDS_P2;PMS_P1;PMS_P2;Temp;Humidity;BMP_temperature;BMP_pressure;BME280_temperature;BME280_humidity;BME280_pressure;Samples;Min_cycle;Max_cycle;Signal;HPM_P1;HPM_P2
2023/09/17 00:02:23;;;;;;;;;;;22.60;82.20;;;;;;5084464;28;19917;-35
2023/09/17 00:04:49;;;;;;;;;;;22.60;82.20;;;;;;5079422;28;19988;-35
2023/09/17 00:07:15;;;;;;;;;;;22.60;82.10;;;;;;5089964;28;19916;-36
2023/09/17 00:09:41;;;;;;;;;;;22.60;82.00;;;;;;5094875;28;19983;-35
2023/09/17 00:12:07;;;;;;;;;;;22.60;82.00;;;;;;5092352;28;19916;-35
2023/09/17 00:14:33;;;;;;;;;;;22.60;82.00;;;;;;5091936;28;19958;-35
2023/09/17 00:16:59;;;;;;;;;;;22.60;81.90;;;;;;5075319;28;19924;-36
2023/09/17 00:19:26;;;;;;;;;;;22.60;81.90;;;;;;5073559;28;19916;-36
2023/09/17 00:21:52;;;;;;;;;;;22.60;81.90;;;;;;5094839;28;20365;-36
2023/09/17 00:24:18;;;;;;;;;;;22.60;82.10;;;;;;5087742;28;19921;-36
2023/09/17 00:26:44;;;;;;;;;;;22.60;82.20;;;;;;5090297;28;20829;-36
2023/09/17 00:29:09;;;;;;;;;;;22.60;82.20;;;;;;5089101;28;20435;-36
2023/09/17 00:31:37;;;;;;;;;;;22.60;82.20;;;;;;5090641;28;19923;-37
2023/09/17 00:34:03;;;;;;;;;;;22.60;82.20;;;;;;5084156;28;20007;-36
2023/09/17 00:36:29;;;;;;;;;;;22.60;82.20;;;;;;5085938;28;19963;-36
2023/09/17 00:38:55;;;;;;;;;;;22.60;82.30;;;;;;5086281;28;19927;-36
2023/09/17 00:41:21;;;;;;;;;;;22.60;82.30;;;;;;5090234;28;19947;-42
2023/09/17 00:43:47;;;;;;;;;;;22.60;82.20;;;;;;5087870;28;19972;-37
2023/09/17 00:46:14;;;;;;;;;;;22.60;82.10;;;;;;5074660;28;19916;-35
2023/09/17 00:48:41;;;;;;;;;;;22.60;82.10;;;;;;5086314;28;19925;-36
2023/09/17 00:51:06;;;;;;;;;;;22.60;82.10;;;;;;5089840;28;20339;-36
2023/09/17 00:53:32;;;;;;;;;;;22.60;82.00;;;;;;5077937;28;19920;-36
2023/09/17 00:55:58;;;;;;;;;;;22.60;82.00;;;;;;5091152;28;20681;-36
2023/09/17 00:58:24;;;;;;;;;;;22.60;82.00;;;;;;5087712;28;19921;-36
2023/09/17 01:00:50;;;;;;;;;;;22.60;82.10;;;;;;5089587;28;19987;-36
2023/09/17 01:03:16;;;;;;;;;;;22.60;82.10;;;;;;5090142;28;19962;-36
2023/09/17 01:05:42;;;;;;;;;;;22.60;82.20;;;;;;5086027;28;19916;-37
2023/09/17 01:08:09;;;;;;;;;;;22.60;82.20;;;;;;5087626;28;19916;-37
2023/09/17 01:10:35;;;;;;;;;;;22.60;82.20;;;;;;5090213;28;19917;-36
2023/09/17 01:13:01;;;;;;;;;;;22.60;82.30;;;;;;5092328;28;19916;-37
2023/09/17 01:15:27;;;;;;;;;;;22.60;82.30;;;;;;5088712;28;20013;-36
2023/09/17 01:17:54;;;;;;;;;;;22.60;82.40;;;;;;5088560;28;19924;-36
2023/09/17 01:20:26;;;;;;;;;;;22.60;82.30;;;;;;5076816;28;19920;-36
2023/09/17 01:22:59;;;;;;;;;;;22.60;82.30;;;;;;5079239;28;19917;-37
2023/09/17 01:25:32;;;;;;;;;;;22.60;82.20;;;;;;5083116;28;19923;-36
2023/09/17 01:27:58;;;;;;;;;;;22.60;82.20;;;;;;5071316;28;19916;-37
2023/09/17 01:30:24;;;;;;;;;;;22.50;82.00;;;;;;5102634;28;19916;-36
2023/09/17 01:32:50;;;;;;;;;;;22.60;82.10;;;;;;5091577;28;19921;-36
2023/09/17 01:35:16;;;;;;;;;;;22.50;82.00;;;;;;5094325;28;19917;-36
2023/09/17 01:37:47;;;;;;;;;;;22.60;82.10;;;;;;5103317;28;19979;-34
2023/09/17 01:40:12;;;;;;;;;;;22.50;82.10;;;;;;5096966;28;19916;-36
2023/09/17 01:42:38;;;;;;;;;;;22.60;82.20;;;;;;5095653;28;19931;-36
2023/09/17 01:45:05;;;;;;;;;;;22.50;82.10;;;;;;5102227;28;19919;-36
2023/09/17 01:47:32;;;;;;;;;;;22.50;82.20;;;;;;5102950;28;19912;-36
2023/09/17 01:50:00;;;;;;;;;;;22.50;82.10;;;;;;5097208;28;19963;-36
2023/09/17 01:52:26;;;;;;;;;;;22.50;82.10;;;;;;5095123;28;19919;-36
2023/09/17 01:54:53;;;;;;;;;;;22.50;82.20;;;;;;5096657;28;19923;-36
2023/09/17 01:57:19;;;;;;;;;;;22.50;82.10;;;;;;5101243;28;19979;-36
2023/09/17 01:59:45;;;;;;;;;;;22.50;82.10;;;;;;5103062;28;19912;-36
2023/09/17 02:02:11;;;;;;;;;;;22.50;82.10;;;;;;5077559;28;19916;-41
2023/09/17 02:04:37;;;;;;;;;;;22.50;82.10;;;;;;5099079;28;19992;-36
2023/09/17 02:07:03;;;;;;;;;;;22.50;82.10;;;;;;5091892;28;19912;-36
2023/09/17 02:09:29;;;;;;;;;;;22.50;82.00;;;;;;5102039;28;19934;-36
2023/09/17 02:11:55;;;;;;;;;;;22.50;82.00;;;;;;5095858;28;19944;-36
2023/09/17 02:14:21;;;;;;;;;;;22.50;82.00;;;;;;5094827;28;19916;-37
2023/09/17 02:16:47;;;;;;;;;;;22.50;82.00;;;;;;5089554;28;19931;-36
2023/09/17 02:19:13;;;;;;;;;;;22.50;82.00;;;;;;5098906;28;19976;-36
2023/09/17 02:21:40;;;;;;;;;;;22.50;82.10;;;;;;5093607;28;19920;-36
2023/09/17 02:24:07;;;;;;;;;;;22.50;82.10;;;;;;5085049;28;19963;-37
2023/09/17 02:26:33;;;;;;;;;;;22.50;82.00;;;;;;5103378;28;19916;-37
2023/09/17 02:28:59;;;;;;;;;;;22.50;82.00;;;;;;5087492;28;19916;-36
2023/09/17 02:31:25;;;;;;;;;;;22.50;82.00;;;;;;5099478;28;19917;-36
2023/09/17 02:33:51;;;;;;;;;;;22.50;82.00;;;;;;5087633;28;19912;-36
2023/09/17 02:36:18;;;;;;;;;;;22.50;82.00;;;;;;5087094;28;20042;-36
2023/09/17 02:38:44;;;;;;;;;;;22.50;82.00;;;;;;5093640;28;19998;-36
2023/09/17 02:41:09;;;;;;;;;;;22.50;82.00;;;;;;5092073;28;20384;-36
2023/09/17 02:43:36;;;;;;;;;;;22.50;82.00;;;;;;5088655;28;19928;-36
2023/09/17 02:46:03;;;;;;;;;;;22.50;81.90;;;;;;5087317;28;19924;-36
2023/09/17 02:48:32;;;;;;;;;;;22.40;81.90;;;;;;5093078;28;20194;-36
2023/09/17 02:50:58;;;;;;;;;;;22.40;81.90;;;;;;5095761;28;19939;-36
2023/09/17 02:53:24;;;;;;;;;;;22.40;81.90;;;;;;5094913;28;19919;-36
2023/09/17 02:55:50;;;;;;;;;;;22.40;81.90;;;;;;5094639;28;19920;-36
2023/09/17 02:58:16;;;;;;;;;;;22.40;81.90;;;;;;5085257;28;19931;-36
2023/09/17 03:00:44;;;;;;;;;;;22.40;81.90;;;;;;5084558;28;19912;-36
2023/09/17 03:03:10;;;;;;;;;;;22.40;81.90;;;;;;5089308;28;19917;-37
2023/09/17 03:05:38;;;;;;;;;;;22.40;81.90;;;;;;5085079;28;19917;-36
2023/09/17 03:08:05;;;;;;;;;;;22.40;81.90;;;;;;5091929;28;19916;-38
2023/09/17 03:10:32;;;;;;;;;;;22.40;81.90;;;;;;5101805;28;19938;-36
2023/09/17 03:12:58;;;;;;;;;;;22.40;81.90;;;;;;5095535;28;19928;-35
2023/09/17 03:15:26;;;;;;;;;;;22.40;81.90;;;;;;5091918;28;19994;-34
2023/09/17 03:17:51;;;;;;;;;;;22.40;81.90;;;;;;5091790;28;19936;-34
2023/09/17 03:20:18;;;;;;;;;;;22.40;81.90;;;;;;5100147;28;19916;-36
2023/09/17 03:22:44;;;;;;;;;;;22.40;81.90;;;;;;5101847;28;20408;-34
2023/09/17 03:25:13;;;;;;;;;;;22.40;81.90;;;;;;5100797;28;19916;-35
2023/09/17 03:27:41;;;;;;;;;;;22.40;81.90;;;;;;5097599;28;19927;-35
2023/09/17 03:30:08;;;;;;;;;;;22.40;81.90;;;;;;5084587;28;19972;-35
2023/09/17 03:32:33;;;;;;;;;;;22.40;81.90;;;;;;5092264;28;19916;-35
2023/09/17 03:35:00;;;;;;;;;;;22.40;81.90;;;;;;5083605;28;19923;-34
2023/09/17 03:37:26;;;;;;;;;;;22.40;81.90;;;;;;5084078;28;20717;-35
2023/09/17 03:40:07;;;;;;;;;;;22.40;81.90;;;;;;5089709;28;19916;-35
2023/09/17 03:42:43;;;;;;;;;;;22.40;81.90;;;;;;5082780;28;19982;-36
2023/09/17 03:45:09;;;;;;;;;;;22.40;81.90;;;;;;5083898;28;19924;-35
2023/09/17 03:47:39;;;;;;;;;;;22.30;81.90;;;;;;5090115;28;19939;-35
2023/09/17 03:50:06;;;;;;;;;;;22.40;81.90;;;;;;5089706;28;19913;-35
2023/09/17 03:52:33;;;;;;;;;;;22.40;81.90;;;;;;5086542;28;20015;-35
2023/09/17 03:54:59;;;;;;;;;;;22.30;81.90;;;;;;5080519;28;19916;-35
2023/09/17 03:57:25;;;;;;;;;;;22.30;81.90;;;;;;5101723;28;19927;-36
2023/09/17 03:59:51;;;;;;;;;;;22.30;81.90;;;;;;5094796;28;19944;-35
2023/09/17 04:02:17;;;;;;;;;;;22.30;81.90;;;;;;5094864;28;19939;-35
2023/09/17 04:04:43;;;;;;;;;;;22.30;81.90;;;;;;5093669;28;19958;-35
2023/09/17 04:07:09;;;;;;;;;;;22.30;81.90;;;;;;5093814;28;19920;-35
2023/09/17 04:09:35;;;;;;;;;;;22.30;81.90;;;;;;5088914;28;19916;-35
2023/09/17 04:12:04;;;;;;;;;;;22.30;81.90;;;;;;5094032;28;19943;-35
2023/09/17 04:14:32;;;;;;;;;;;22.30;81.90;;;;;;5074971;28;19988;-35
2023/09/17 04:17:02;;;;;;;;;;;22.30;81.90;;;;;;5105604;28;19942;-35
2023/09/17 04:19:29;;;;;;;;;;;22.30;81.90;;;;;;5102477;28;19913;-35
2023/09/17 04:21:56;;;;;;;;;;;22.30;81.90;;;;;;5091486;28;20462;-35
2023/09/17 04:24:42;;;;;;;;;;;22.30;81.90;;;;;;5006869;28;19917;-38
2023/09/17 04:27:08;;;;;;;;;;;22.30;81.90;;;;;;5011896;28;20009;-35
2023/09/17 04:29:34;;;;;;;;;;;22.30;81.90;;;;;;5019062;28;19980;-35
2023/09/17 04:32:00;;;;;;;;;;;22.30;81.90;;;;;;5018550;28;19963;-35
2023/09/17 04:34:25;;;;;;;;;;;22.30;82.00;;;;;;5005508;28;19926;-35
2023/09/17 04:36:51;;;;;;;;;;;22.30;81.90;;;;;;5005552;28;19936;-35
2023/09/17 04:39:17;;;;;;;;;;;22.30;81.90;;;;;;5010188;28;20064;-35
2023/09/17 04:41:44;;;;;;;;;;;22.30;81.90;;;;;;5010296;28;19946;-35
2023/09/17 04:44:10;;;;;;;;;;;22.30;81.90;;;;;;5019644;28;19937;-34
2023/09/17 04:46:39;;;;;;;;;;;22.20;81.90;;;;;;5009379;28;19953;-35
2023/09/17 04:49:05;;;;;;;;;;;22.30;81.90;;;;;;5012519;28;20040;-35
2023/09/17 04:51:31;;;;;;;;;;;22.20;81.90;;;;;;5011561;28;19960;-35
2023/09/17 04:53:57;;;;;;;;;;;22.20;82.60;;;;;;5005031;28;19917;-35
2023/09/17 04:56:23;;;;;;;;;;;22.20;81.90;;;;;;5013798;28;19922;-35
2023/09/17 04:58:49;;;;;;;;;;;22.20;81.90;;;;;;5009283;28;20016;-35
2023/09/17 05:01:15;;;;;;;;;;;22.20;81.90;;;;;;5037210;28;19963;-35
2023/09/17 05:03:42;;;;;;;;;;;22.20;81.90;;;;;;5058833;28;19925;-35
2023/09/17 05:06:08;;;;;;;;;;;22.20;81.90;;;;;;5078769;28;19973;-35
2023/09/17 05:08:34;;;;;;;;;;;22.20;81.90;;;;;;5073687;28;19916;-35
2023/09/17 05:11:00;;;;;;;;;;;22.20;81.90;;;;;;5079974;28;19920;-35
2023/09/17 05:13:26;;;;;;;;;;;22.20;81.90;;;;;;5074264;28;19940;-35
2023/09/17 05:15:51;;;;;;;;;;;22.20;81.90;;;;;;5069805;28;20301;-35
2023/09/17 05:18:17;;;;;;;;;;;22.20;82.00;;;;;;5066344;28;19978;-34
2023/09/17 05:20:48;;;;;;;;;;;22.20;82.00;;;;;;5071681;28;20352;-35
2023/09/17 05:23:14;;;;;;;;;;;22.20;81.90;;;;;;5067724;28;19984;-34
2023/09/17 05:25:40;;;;;;;;;;;22.20;81.90;;;;;;5059036;28;19967;-35
2023/09/17 05:28:09;;;;;;;;;;;22.20;82.00;;;;;;5076657;28;19999;-35
2023/09/17 05:30:35;;;;;;;;;;;22.20;82.00;;;;;;5066331;28;19913;-35
2023/09/17 05:33:01;;;;;;;;;;;22.20;82.00;;;;;;5073677;28;19986;-35
2023/09/17 05:35:27;;;;;;;;;;;22.20;82.00;;;;;;5073969;28;19924;-36
2023/09/17 05:37:53;;;;;;;;;;;22.20;82.00;;;;;;5065675;28;19925;-35
2023/09/17 05:40:18;;;;;;;;;;;22.20;82.00;;;;;;5078415;28;19916;-35
2023/09/17 05:42:44;;;;;;;;;;;22.20;82.00;;;;;;5084490;28;19993;-34
2023/09/17 05:45:10;;;;;;;;;;;22.20;82.00;;;;;;5094440;28;19981;-34
2023/09/17 05:47:37;;;;;;;;;;;22.20;82.10;;;;;;5097298;28;19923;-35
2023/09/17 05:50:03;;;;;;;;;;;22.20;82.00;;;;;;5095116;28;19955;-35
2023/09/17 05:52:29;;;;;;;;;;;22.20;82.10;;;;;;5092421;28;19916;-35
2023/09/17 05:54:55;;;;;;;;;;;22.10;82.00;;;;;;5091894;28;19962;-35
2023/09/17 05:57:21;;;;;;;;;;;22.10;82.00;;;;;;5094676;28;19924;-35
2023/09/17 05:59:47;;;;;;;;;;;22.10;82.00;;;;;;5097778;28;19923;-35
2023/09/17 06:02:13;;;;;;;;;;;22.10;82.00;;;;;;5094911;28;19912;-35
2023/09/17 06:04:39;;;;;;;;;;;22.10;82.00;;;;;;5091108;28;20009;-35
2023/09/17 06:07:04;;;;;;;;;;;22.10;82.00;;;;;;5085710;28;19912;-35
2023/09/17 06:09:31;;;;;;;;;;;22.10;82.00;;;;;;5089806;28;19921;-35
2023/09/17 06:11:57;;;;;;;;;;;22.10;82.00;;;;;;5089507;28;20002;-36
2023/09/17 06:14:23;;;;;;;;;;;22.10;82.00;;;;;;5091895;28;20392;-35
2023/09/17 06:16:49;;;;;;;;;;;22.10;82.00;;;;;;5090980;28;19916;-34
2023/09/17 06:19:15;;;;;;;;;;;22.10;82.00;;;;;;5101304;28;19916;-34
2023/09/17 06:21:41;;;;;;;;;;;22.10;82.10;;;;;;5090015;28;19923;-34
2023/09/17 06:24:07;;;;;;;;;;;22.10;82.10;;;;;;5094151;28;19984;-34
2023/09/17 06:26:33;;;;;;;;;;;22.10;82.10;;;;;;5099055;28;19916;-34
2023/09/17 06:28:59;;;;;;;;;;;22.10;82.10;;;;;;5092128;28;19916;-36
2023/09/17 06:31:25;;;;;;;;;;;22.10;82.10;;;;;;5100020;28;19979;-34
2023/09/17 06:33:51;;;;;;;;;;;22.10;82.10;;;;;;5100342;28;19923;-35
2023/09/17 06:36:17;;;;;;;;;;;22.10;82.10;;;;;;5099531;28;19927;-35
2023/09/17 06:38:42;;;;;;;;;;;22.10;82.20;;;;;;5091210;28;19917;-34
2023/09/17 06:41:08;;;;;;;;;;;22.10;82.10;;;;;;5093718;28;20006;-36
2023/09/17 06:43:34;;;;;;;;;;;22.10;82.20;;;;;;5095064;28;19931;-35
2023/09/17 06:46:00;;;;;;;;;;;22.10;82.20;;;;;;5102073;28;19991;-34
2023/09/17 06:48:27;;;;;;;;;;;22.10;82.20;;;;;;5087486;28;19922;-34
2023/09/17 06:50:53;;;;;;;;;;;22.10;82.20;;;;;;5096436;28;19917;-34
2023/09/17 06:53:19;;;;;;;;;;;22.10;82.20;;;;;;5081206;28;19938;-35
2023/09/17 06:55:45;;;;;;;;;;;22.10;83.00;;;;;;5093944;28;19912;-34
2023/09/17 06:58:12;;;;;;;;;;;22.10;82.20;;;;;;5099220;28;19924;-34
2023/09/17 07:00:38;;;;;;;;;;;22.10;82.30;;;;;;5101379;28;19916;-34
2023/09/17 07:03:04;;;;;;;;;;;22.10;82.30;;;;;;5095873;28;19923;-34
2023/09/17 07:05:30;;;;;;;;;;;22.10;82.30;;;;;;5098598;28;19923;-35
2023/09/17 07:07:55;;;;;;;;;;;22.10;82.30;;;;;;5098093;28;19977;-34
2023/09/17 07:10:21;;;;;;;;;;;22.10;82.30;;;;;;5096576;28;19916;-34
2023/09/17 07:12:47;;;;;;;;;;;22.10;82.30;;;;;;5095967;28;19916;-34
2023/09/17 07:15:13;;;;;;;;;;;22.10;82.30;;;;;;5092758;28;20348;-35
2023/09/17 07:17:39;;;;;;;;;;;22.10;82.30;;;;;;5095093;28;19924;-35
2023/09/17 07:20:06;;;;;;;;;;;22.10;82.30;;;;;;5100931;28;20006;-34
2023/09/17 07:22:32;;;;;;;;;;;22.10;82.30;;;;;;5094251;28;19947;-34
2023/09/17 07:24:58;;;;;;;;;;;22.10;82.30;;;;;;5101374;28;20384;-34
2023/09/17 07:27:26;;;;;;;;;;;22.10;82.30;;;;;;5094068;28;19919;-35
2023/09/17 07:29:53;;;;;;;;;;;22.10;82.30;;;;;;5101667;28;19931;-35
2023/09/17 07:32:18;;;;;;;;;;;22.10;82.30;;;;;;5092981;28;19916;-34
2023/09/17 07:34:44;;;;;;;;;;;22.10;82.30;;;;;;5101077;28;19916;-34
2023/09/17 07:37:11;;;;;;;;;;;22.00;82.30;;;;;;5099545;28;19964;-34
2023/09/17 07:39:38;;;;;;;;;;;22.00;82.30;;;;;;5096761;28;19916;-34
2023/09/17 07:42:04;;;;;;;;;;;22.00;82.30;;;;;;5086251;28;20015;-34
2023/09/17 07:44:30;;;;;;;;;;;22.10;82.30;;;;;;5091360;28;19924;-34
2023/09/17 07:46:56;;;;;;;;;;;22.00;82.30;;;;;;5090869;28;20488;-34
2023/09/17 07:49:26;;;;;;;;;;;22.00;82.30;;;;;;5091276;28;19923;-34
2023/09/17 07:51:52;;;;;;;;;;;22.00;82.30;;;;;;5103519;28;19959;-34
2023/09/17 07:54:18;;;;;;;;;;;22.00;82.30;;;;;;5099892;28;19923;-35
2023/09/17 07:56:44;;;;;;;;;;;22.00;82.30;;;;;;5100814;28;19923;-34
2023/09/17 07:59:10;;;;;;;;;;;22.00;82.30;;;;;;5107012;28;19935;-34
2023/09/17 08:01:36;;;;;;;;;;;22.00;82.30;;;;;;5107248;28;20266;-34
2023/09/17 08:04:03;;;;;;;;;;;22.00;82.30;;;;;;5106981;28;19912;-35
2023/09/17 08:06:29;;;;;;;;;;;22.00;82.30;;;;;;5097271;28;20001;-34
2023/09/17 08:08:55;;;;;;;;;;;22.00;82.30;;;;;;5104750;28;19908;-35
2023/09/17 08:11:22;;;;;;;;;;;22.00;82.30;;;;;;5091015;28;19916;-34
2023/09/17 08:13:48;;;;;;;;;;;22.00;82.30;;;;;;5093246;28;20361;-35
2023/09/17 08:16:14;;;;;;;;;;;22.00;82.30;;;;;;5089819;28;19917;-34
2023/09/17 08:18:41;;;;;;;;;;;22.00;82.40;;;;;;5096478;28;20014;-34
2023/09/17 08:21:07;;;;;;;;;;;22.00;82.40;;;;;;5092758;28;19976;-34
2023/09/17 08:23:33;;;;;;;;;;;22.00;82.30;;;;;;5093327;28;19943;-35
2023/09/17 08:25:59;;;;;;;;;;;22.00;82.40;;;;;;5093729;28;20414;-34
2023/09/17 08:28:25;;;;;;;;;;;22.00;82.40;;;;;;5092908;28;19983;-34
2023/09/17 08:30:51;;;;;;;;;;;22.00;82.40;;;;;;5091341;28;19911;-34
2023/09/17 08:33:17;;;;;;;;;;;22.00;82.40;;;;;;5092264;28;19916;-36
2023/09/17 08:35:43;;;;;;;;;;;22.00;82.40;;;;;;5093109;28;19916;-35
2023/09/17 08:38:10;;;;;;;;;;;22.00;82.50;;;;;;5096204;28;19926;-34
2023/09/17 08:40:36;;;;;;;;;;;22.00;82.40;;;;;;5099018;28;19922;-34
2023/09/17 08:43:03;;;;;;;;;;;22.00;83.10;;;;;;5090222;28;19927;-34
2023/09/17 08:45:29;;;;;;;;;;;22.00;82.40;;;;;;5093685;28;19912;-35
2023/09/17 08:47:55;;;;;;;;;;;22.00;82.40;;;;;;5093444;28;19920;-34
2023/09/17 08:50:21;;;;;;;;;;;22.00;82.40;;;;;;5094755;28;19920;-34
2023/09/17 08:52:48;;;;;;;;;;;22.00;82.40;;;;;;5095941;28;19912;-34
2023/09/17 08:55:14;;;;;;;;;;;22.00;82.50;;;;;;5100380;28;19944;-34
2023/09/17 08:57:41;;;;;;;;;;;22.00;82.50;;;;;;5078337;28;20062;-34
2023/09/17 09:00:10;;;;;;;;;;;22.00;82.50;;;;;;5071358;28;19923;-34
2023/09/17 09:02:52;;;;;;;;;;;22.00;82.50;;;;;;5076310;28;19916;-34
2023/09/17 09:05:17;;;;;;;;;;;22.00;82.50;;;;;;5084251;28;19915;-37
2023/09/17 09:07:47;;;;;;;;;;;22.00;82.50;;;;;;5059392;28;20284;-34
2023/09/17 09:10:13;;;;;;;;;;;22.00;82.50;;;;;;5091975;28;20010;-34
2023/09/17 09:12:39;;;;;;;;;;;22.00;82.50;;;;;;5086045;28;19912;-34
2023/09/17 09:15:06;;;;;;;;;;;22.00;82.50;;;;;;5072065;28;20023;-34
2023/09/17 09:17:31;;;;;;;;;;;22.00;82.50;;;;;;5069456;28;19955;-34
2023/09/17 09:19:57;;;;;;;;;;;22.00;82.50;;;;;;5086005;28;20368;-34
2023/09/17 09:22:24;;;;;;;;;;;22.00;82.50;;;;;;5087990;28;19955;-34
2023/09/17 09:24:50;;;;;;;;;;;22.00;82.50;;;;;;5085901;28;19926;-35
2023/09/17 09:27:16;;;;;;;;;;;22.00;82.50;;;;;;5090669;28;19944;-34
2023/09/17 09:29:43;;;;;;;;;;;22.00;82.50;;;;;;5086541;28;19916;-34
2023/09/17 09:32:09;;;;;;;;;;;22.00;82.50;;;;;;5088668;28;19925;-34
2023/09/17 09:34:36;;;;;;;;;;;22.00;82.60;;;;;;5086260;28;20055;-35
2023/09/17 09:37:08;;;;;;;;;;;22.00;82.60;;;;;;5070092;28;19924;-34
2023/09/17 09:39:35;;;;;;;;;;;22.00;82.70;;;;;;5094168;28;19913;-35
2023/09/17 09:42:01;;;;;;;;;;;22.00;82.60;;;;;;5096211;28;20007;-34
2023/09/17 09:44:29;;;;;;;;;;;22.00;82.60;;;;;;5084727;28;19924;-34
2023/09/17 09:46:58;;;;;;;;;;;22.00;82.60;;;;;;5096572;28;19918;-34
2023/09/17 09:49:28;;;;;;;;;;;22.00;82.60;;;;;;5098435;28;19939;-34
2023/09/17 09:51:57;;;;;;;;;;;22.00;82.60;;;;;;5092819;28;19934;-39
2023/09/17 09:54:23;;;;;;;;;;;22.00;82.60;;;;;;5095144;28;19916;-35
2023/09/17 09:56:49;;;;;;;;;;;22.00;82.60;;;;;;5096038;28;19923;-34
2023/09/17 09:59:16;;;;;;;;;;;22.00;82.60;;;;;;5094425;28;19973;-34
2023/09/17 10:01:42;;;;;;;;;;;22.00;82.60;;;;;;5072802;28;19955;-34
2023/09/17 10:04:08;;;;;;;;;;;22.00;82.60;;;;;;5095198;28;19912;-34
2023/09/17 10:06:35;;;;;;;;;;;22.00;82.60;;;;;;5075920;28;19934;-34
2023/09/17 10:09:02;;;;;;;;;;;22.00;82.60;;;;;;5093376;28;19983;-34
2023/09/17 10:11:30;;;;;;;;;;;22.00;82.60;;;;;;5098003;28;19937;-34
2023/09/17 10:14:02;;;;;;;;;;;22.00;82.70;;;;;;5086754;28;19912;-34
2023/09/17 10:16:32;;;;;;;;;;;22.00;82.70;;;;;;5094211;28;19983;-35
2023/09/17 10:18:58;;;;;;;;;;;22.00;82.70;;;;;;5093408;28;19912;-34
2023/09/17 10:21:27;;;;;;;;;;;22.00;82.70;;;;;;5082722;28;19916;-34
2023/09/17 10:23:53;;;;;;;;;;;21.90;82.60;;;;;;5071740;28;19913;-34
2023/09/17 10:26:20;;;;;;;;;;;22.00;82.60;;;;;;5086035;28;19916;-34
2023/09/17 10:28:46;;;;;;;;;;;22.00;82.70;;;;;;5085118;28;19957;-35
2023/09/17 10:31:13;;;;;;;;;;;22.00;82.70;;;;;;5069311;28;20003;-34
2023/09/17 10:33:39;;;;;;;;;;;22.00;82.70;;;;;;5089222;28;19916;-34
2023/09/17 10:36:07;;;;;;;;;;;22.00;82.70;;;;;;5093035;28;19916;-34
2023/09/17 10:38:34;;;;;;;;;;;22.00;82.70;;;;;;5088616;28;19930;-35
2023/09/17 10:41:00;;;;;;;;;;;22.00;82.80;;;;;;5073809;28;19908;-34
2023/09/17 10:43:26;;;;;;;;;;;22.00;82.70;;;;;;5088772;28;19931;-35
2023/09/17 10:45:52;;;;;;;;;;;22.00;82.70;;;;;;5089241;28;19923;-34
2023/09/17 10:48:18;;;;;;;;;;;22.00;82.80;;;;;;5075158;28;19913;-34
2023/09/17 10:50:44;;;;;;;;;;;22.00;82.80;;;;;;5091432;28;19920;-35
2023/09/17 10:53:10;;;;;;;;;;;22.00;82.80;;;;;;5066772;28;19920;-34
2023/09/17 10:55:37;;;;;;;;;;;22.00;82.80;;;;;;5089761;28;19916;-34
2023/09/17 10:58:14;;;;;;;;;;;22.00;82.80;;;;;;5095326;28;20006;-34
2023/09/17 11:00:42;;;;;;;;;;;22.00;82.90;;;;;;5066780;28;19916;-34
2023/09/17 11:03:09;;;;;;;;;;;22.00;82.80;;;;;;5086686;28;19916;-34
2023/09/17 11:05:35;;;;;;;;;;;22.00;82.80;;;;;;5088389;28;19916;-34
2023/09/17 11:08:04;;;;;;;;;;;22.00;82.80;;;;;;5094986;28;19924;-35
2023/09/17 11:10:30;;;;;;;;;;;22.00;82.80;;;;;;5071286;28;20098;-34
2023/09/17 11:12:56;;;;;;;;;;;22.00;82.70;;;;;;5075175;28;19959;-34
2023/09/17 11:15:22;;;;;;;;;;;22.00;82.80;;;;;;5067683;28;19916;-34
2023/09/17 11:17:48;;;;;;;;;;;21.90;82.70;;;;;;5084442;28;20369;-34
2023/09/17 11:20:17;;;;;;;;;;;21.90;82.70;;;;;;5086045;28;20378;-35
2023/09/17 11:22:44;;;;;;;;;;;22.00;82.80;;;;;;5086524;28;19912;-34
2023/09/17 11:25:10;;;;;;;;;;;22.00;82.90;;;;;;5088423;28;19967;-35
2023/09/17 11:27:49;;;;;;;;;;;21.90;82.80;;;;;;5066739;28;20597;-34
2023/09/17 11:30:18;;;;;;;;;;;22.00;82.90;;;;;;5083372;28;19916;-34
2023/09/17 11:32:53;;;;;;;;;;;22.00;82.90;;;;;;5087034;28;20444;-34
2023/09/17 11:35:23;;;;;;;;;;;21.90;82.80;;;;;;5086702;28;19913;-35
2023/09/17 11:37:51;;;;;;;;;;;21.90;82.90;;;;;;5081735;28;19928;-34
2023/09/17 11:40:18;;;;;;;;;;;21.90;82.90;;;;;;5096298;28;19923;-35
2023/09/17 11:42:46;;;;;;;;;;;21.90;82.80;;;;;;5088038;28;19920;-35
2023/09/17 11:45:12;;;;;;;;;;;21.90;82.80;;;;;;5067263;28;20038;-35
2023/09/17 11:47:38;;;;;;;;;;;21.90;82.80;;;;;;5090629;28;19924;-36
2023/09/17 11:50:05;;;;;;;;;;;21.90;82.80;;;;;;5065612;28;19959;-35
2023/09/17 11:52:31;;;;;;;;;;;21.90;82.80;;;;;;5101388;28;19962;-35
2023/09/17 11:55:06;;;;;;;;;;;21.90;82.80;;;;;;5076056;28;20061;-35
2023/09/17 11:57:33;;;;;;;;;;;21.90;82.90;;;;;;5084174;28;19946;-35
2023/09/17 11:59:59;;;;;;;;;;;21.90;82.80;;;;;;5091546;28;19916;-35
2023/09/17 12:02:26;;;;;;;;;;;21.90;82.90;;;;;;5095381;28;19951;-35
2023/09/17 12:04:52;;;;;;;;;;;21.90;82.90;;;;;;5101428;28;19920;-35
2023/09/17 12:07:18;;;;;;;;;;;21.90;82.90;;;;;;5090147;28;19916;-35
2023/09/17 12:12:13;;;;;;;;;;;21.90;82.90;;;;;;5092584;28;20007;-35
2023/09/17 12:14:40;;;;;;;;;;;21.90;82.90;;;;;;5096743;28;20463;-36
2023/09/17 12:17:06;;;;;;;;;;;21.90;83.00;;;;;;5092643;28;20019;-34
2023/09/17 12:19:32;;;;;;;;;;;21.90;82.90;;;;;;5097494;28;19916;-35
2023/09/17 12:21:59;;;;;;;;;;;21.90;82.90;;;;;;5089757;28;19930;-35
2023/09/17 12:24:30;;;;;;;;;;;21.90;82.90;;;;;;5072893;28;19916;-42
2023/09/17 12:29:33;;;;;;;;;;;21.90;82.90;;;;;;5086872;28;19923;-35
2023/09/17 12:31:59;;;;;;;;;;;21.90;82.90;;;;;;5097849;28;20010;-35
2023/09/17 12:34:26;;;;;;;;;;;21.90;82.90;;;;;;5093491;28;19916;-35
2023/09/17 12:36:51;;;;;;;;;;;21.90;82.90;;;;;;5102220;28;19920;-35
2023/09/17 12:39:17;;;;;;;;;;;21.90;82.90;;;;;;5093207;28;19924;-35
2023/09/17 12:41:43;;;;;;;;;;;21.90;83.00;;;;;;5092440;28;19920;-35
2023/09/17 12:44:09;;;;;;;;;;;21.90;83.80;;;;;;5100852;28;19920;-35
2023/09/17 12:57:32;;;;;;;1.52;1.42;;;21.90;82.30;;;;;;5145484;27;20426;-43
2023/09/17 12:59:59;;;;;;;1.60;1.50;;;21.90;83.00;;;;;;5139681;28;20050;-44
2023/09/17 13:02:29;;;;;;;1.50;1.40;;;21.90;82.90;;;;;;5140194;27;20424;-44
2023/09/17 13:04:55;;;;;;;1.38;1.27;;;22.00;82.90;;;;;;5139745;28;20046;-44
2023/09/17 13:07:22;;;;;;;1.70;1.60;;;22.00;82.90;;;;;;5139794;27;20031;-45
2023/09/17 13:09:49;;;;;;;;;;;22.00;82.90;;;;;;5138743;27;20031;-44
2023/09/17 13:12:19;;;;;;;1.52;1.42;;;22.00;83.00;;;;;;5140135;27;19918;-43
2023/09/17 13:14:47;;;;;;;1.95;1.67;;;22.00;82.90;;;;;;5139853;27;20066;-44
2023/09/17 13:17:17;;;;;;;1.50;1.40;;;22.00;83.00;;;;;;5139774;27;20034;-44
2023/09/17 13:19:43;;;;;;;1.70;1.60;;;22.00;83.00;;;;;;5138383;28;20467;-44
2023/09/17 13:22:10;;;;;;;1.80;1.70;;;22.00;83.00;;;;;;5139220;28;20036;-44
2023/09/17 13:24:37;;;;;;;1.60;1.50;;;22.00;83.00;;;;;;5131227;28;20030;-44
2023/09/17 13:27:03;;;;;;;1.60;1.50;;;21.90;83.00;;;;;;5173094;27;20249;-44
2023/09/17 13:29:35;;;;;;;2.10;1.83;;;22.00;83.00;;;;;;5140155;27;20019;-44
2023/09/17 13:32:02;;;;;;;2.38;1.48;;;22.00;83.80;;;;;;5139846;28;20023;-44
2023/09/17 13:34:29;;;;;;;1.90;1.50;;;22.00;83.00;;;;;;5132312;27;20023;-43
2023/09/17 13:36:59;;;;;;;1.85;1.65;;;22.00;83.00;;;;;;5139763;27;20062;-44
2023/09/17 13:39:25;;;;;;;2.75;1.60;;;22.00;83.00;;;;;;5138132;28;20559;-44
2023/09/17 13:41:56;;;;;;;1.77;1.42;;;22.00;83.10;;;;;;5139144;27;20066;-44
2023/09/17 13:44:22;;;;;;;1.90;1.45;;;22.00;83.00;;;;;;5139501;27;20412;-44
2023/09/17 13:46:49;;;;;;;1.60;1.50;;;22.00;83.10;;;;;;5138998;27;20054;-44
2023/09/17 13:49:15;;;;;;;;;;;22.00;83.10;;;;;;5140067;27;20045;-44
2023/09/17 13:51:41;;;;;;;1.50;1.40;;;22.00;83.20;;;;;;5139224;27;19908;-45
2023/09/17 13:54:07;;;;;;;1.50;1.40;;;22.00;83.20;;;;;;5139546;27;20112;-45
2023/09/17 13:56:34;;;;;;;1.38;1.27;;;22.00;83.20;;;;;;5121341;27;20071;-45
2023/09/17 13:59:00;;;;;;;1.60;1.50;;;22.00;83.30;;;;;;5115217;28;20024;-45
2023/09/17 14:01:26;;;;;;;1.75;1.40;;;22.00;83.30;;;;;;5121179;28;20030;-45
2023/09/17 14:03:53;;;;;;;1.55;1.45;;;22.00;83.30;;;;;;5115800;28;20019;-44
2023/09/17 14:06:19;;;;;;;1.50;1.40;;;22.00;83.30;;;;;;5113033;28;20039;-44
2023/09/17 14:08:45;;;;;;;1.23;1.13;;;22.00;83.30;;;;;;5123374;28;20516;-45
2023/09/17 14:11:11;;;;;;;1.70;1.60;;;22.00;83.40;;;;;;5110858;28;20073;-45
2023/09/17 14:13:38;;;;;;;1.40;1.30;;;22.00;83.40;;;;;;5125259;28;20042;-44
2023/09/17 14:16:04;;;;;;;1.50;1.40;;;22.00;83.40;;;;;;5122895;28;20039;-45
2023/09/17 14:18:31;;;;;;;1.08;1.05;;;21.90;83.40;;;;;;5120833;28;20080;-45
2023/09/17 14:21:00;;;;;;;1.50;1.40;;;22.00;83.40;;;;;;5124478;28;20046;-45